Time;durP1;ratioP1;P1;durP2;ratioP2;P2;SDS_P1;SDS_P2;PMS_P1;PMS_P2;Temp;Humidity;BMP_temperature;BMP_pressure;BME280_temperature;BME280_humidity;BME280_pressure;Samples;Min_cycle;Max_cycle;Signal;HPM_P1;HPM_P2
2023/07/15 00:00:44;;;;;;;5.00;4.40;;;;;;;;;;5137272;27;20484;-67
2023/07/15 00:03:12;;;;;;;4.23;3.53;;;;;;;;;;5137009;27;20447;-67
2023/07/15 00:05:41;;;;;;;4.93;4.43;;;;;;;;;;5136259;27;20465;-67
2023/07/15 00:08:08;;;;;;;8.63;4.10;;;;;;;;;;5136947;27;20482;-67
2023/07/15 00:10:36;;;;;;;4.67;4.23;;;;;;;;;;5136845;27;20449;-68
2023/07/15 00:13:04;;;;;;;9.23;6.47;;;;;;;;;;5136129;27;20952;-67
2023/07/15 00:15:31;;;;;;;4.80;4.40;;;;;;;;;;5136131;27;20452;-67
2023/07/15 00:17:58;;;;;;;6.70;4.30;;;;;;;;;;5136326;27;20441;-67
2023/07/15 00:20:25;;;;;;;5.27;4.20;;;;;;;;;;5136627;27;20460;-67
2023/07/15 00:22:54;;;;;;;5.50;3.90;;;;;;;;;;5136209;27;20437;-67
2023/07/15 00:25:21;;;;;;;10.60;4.40;;;;;;;;;;5135888;27;20488;-67
2023/07/15 00:27:48;;;;;;;5.20;3.70;;;;;;;;;;5135835;27;20940;-67
2023/07/15 00:30:17;;;;;;;3.30;3.00;;;;;;;;;;5136328;27;20454;-67
2023/07/15 00:32:46;;;;;;;7.07;3.90;;;;;;;;;;5136426;27;20438;-67
2023/07/15 00:35:20;;;;;;;5.10;3.90;;;;;;;;;;5136014;27;20453;-67
2023/07/15 00:37:48;;;;;;;3.90;2.93;;;;;;;;;;5135680;27;20894;-67
2023/07/15 00:40:17;;;;;;;4.33;3.40;;;;;;;;;;5136195;27;20440;-67
2023/07/15 00:43:03;;;;;;;7.83;3.50;;;;;;;;;;5136006;27;20849;-67
2023/07/15 00:45:30;;;;;;;5.60;3.73;;;;;;;;;;5135866;27;20473;-67
2023/07/15 00:48:04;;;;;;;5.40;3.33;;;;;;;;;;5136101;27;20439;-67
2023/07/15 00:50:31;;;;;;;4.17;3.73;;;;;;;;;;5135841;27;20459;-66
2023/07/15 00:52:58;;;;;;;3.67;3.10;;;;;;;;;;5135676;27;20828;-67
2023/07/15 00:55:27;;;;;;;4.20;3.63;;;;;;;;;;5135330;27;21013;-67
2023/07/15 00:57:57;;;;;;;4.30;3.90;;;;;;;;;;5135074;27;20455;-67
2023/07/15 01:00:25;;;;;;;5.43;3.73;;;;;;;;;;5134774;27;20510;-67
2023/07/15 01:02:52;;;;;;;6.03;3.83;;;;;;;;;;5135597;27;20503;-67
2023/07/15 01:05:21;;;;;;;4.60;4.00;;;;;;;;;;5135782;27;20445;-67
2023/07/15 01:07:48;;;;;;;5.43;3.40;;;;;;;;;;5135094;27;20440;-67
2023/07/15 01:10:16;;;;;;;4.30;3.90;;;;;;;;;;5135098;27;20448;-67
2023/07/15 01:12:43;;;;;;;5.07;4.57;;;;;;;;;;5135396;27;20464;-67
2023/07/15 01:15:10;;;;;;;9.50;3.90;;;;;;;;;;5135263;27;20439;-66
2023/07/15 01:17:38;;;;;;;5.90;3.30;;;;;;;;;;5134972;27;20529;-67
2023/07/15 01:20:06;;;;;;;5.40;4.40;;;;;;;;;;5135218;27;20468;-67
2023/07/15 01:22:37;;;;;;;8.63;3.83;;;;;;;;;;5134781;27;20926;-67
2023/07/15 01:25:05;;;;;;;5.17;3.73;;;;;;;;;;5135106;27;20427;-67
2023/07/15 01:27:33;;;;;;;4.30;3.90;;;;;;;;;;5135082;27;20489;-67
2023/07/15 01:30:00;;;;;;;5.23;3.73;;;;;;;;;;5135127;27;20814;-67
2023/07/15 01:32:27;;;;;;;5.30;3.17;;;;;;;;;;5135007;27;20433;-67
2023/07/15 01:34:54;;;;;;;5.90;4.83;;;;;;;;;;5134843;27;20446;-67
2023/07/15 01:37:21;;;;;;;4.07;3.67;;;;;;;;;;5134851;27;20451;-67
2023/07/15 01:39:50;;;;;;;4.80;3.20;;;;;;;;;;5134459;27;20985;-67
2023/07/15 01:42:17;;;;;;;5.57;4.23;;;;;;;;;;5134804;27;20531;-67
2023/07/15 01:44:44;;;;;;;4.33;3.93;;;;;;;;;;5134662;27;20436;-67
2023/07/15 01:47:11;;;;;;;5.87;4.30;;;;;;;;;;5134283;27;20501;-67
2023/07/15 01:49:39;;;;;;;9.57;5.30;;;;;;;;;;5134253;27;20449;-67
2023/07/15 01:52:06;;;;;;;5.90;4.30;;;;;;;;;;5134831;27;20445;-67
2023/07/15 01:54:34;;;;;;;4.47;3.90;;;;;;;;;;5134564;27;20440;-67
2023/07/15 01:57:02;;;;;;;5.00;3.87;;;;;;;;;;5134250;27;20455;-67
2023/07/15 01:59:29;;;;;;;4.93;4.60;;;;;;;;;;5134370;27;20818;-67
2023/07/15 02:01:58;;;;;;;5.60;5.10;;;;;;;;;;5134905;27;20447;-67
2023/07/15 02:04:25;;;;;;;5.30;4.80;;;;;;;;;;5133999;27;20997;-67
2023/07/15 02:06:52;;;;;;;6.27;4.93;;;;;;;;;;5134330;27;20480;-67
2023/07/15 02:09:19;;;;;;;6.60;4.60;;;;;;;;;;5134322;27;20478;-67
2023/07/15 02:11:47;;;;;;;7.70;4.70;;;;;;;;;;5133594;27;20447;-67
2023/07/15 02:14:15;;;;;;;5.43;4.93;;;;;;;;;;5133898;27;20474;-67
2023/07/15 02:16:42;;;;;;;4.10;3.80;;;;;;;;;;5134299;27;20797;-67
2023/07/15 02:19:10;;;;;;;4.20;3.50;;;;;;;;;;5134193;27;20471;-67
2023/07/15 02:21:37;;;;;;;11.80;3.87;;;;;;;;;;5134992;27;20439;-67
2023/07/15 02:24:05;;;;;;;5.63;4.47;;;;;;;;;;5134610;27;20438;-67
2023/07/15 02:26:32;;;;;;;4.33;3.90;;;;;;;;;;5133802;28;21008;-67
2023/07/15 02:28:59;;;;;;;4.47;3.63;;;;;;;;;;5134181;28;20446;-67
2023/07/15 02:31:28;;;;;;;7.53;3.67;;;;;;;;;;5134153;28;20527;-66
2023/07/15 02:33:55;;;;;;;9.13;4.33;;;;;;;;;;5134109;28;20440;-67
2023/07/15 02:36:22;;;;;;;4.47;3.40;;;;;;;;;;5133936;28;20452;-67
2023/07/15 02:38:49;;;;;;;5.57;3.57;;;;;;;;;;5134453;28;20447;-67
2023/07/15 02:41:17;;;;;;;9.77;3.93;;;;;;;;;;5133625;28;20445;-67
2023/07/15 02:43:45;;;;;;;3.90;3.30;;;;;;;;;;5133733;28;20448;-66
2023/07/15 02:46:12;;;;;;;3.60;3.20;;;;;;;;;;5133847;28;20487;-67
2023/07/15 02:48:40;;;;;;;4.63;3.00;;;;;;;;;;5133998;28;20440;-67
2023/07/15 02:51:07;;;;;;;3.17;2.87;;;;;;;;;;5133864;28;20436;-67
2023/07/15 02:53:35;;;;;;;8.43;4.47;;;;;;;;;;5134219;28;20438;-67
2023/07/15 02:56:02;;;;;;;5.10;3.80;;;;;;;;;;5133751;28;20531;-67
2023/07/15 02:58:29;;;;;;;3.87;3.53;;;;;;;;;;5133597;28;20448;-67
2023/07/15 03:00:56;;;;;;;5.33;3.37;;;;;;;;;;5133799;28;20863;-66
2023/07/15 03:03:23;;;;;;;3.03;2.83;;;;;;;;;;5133593;28;20933;-66
2023/07/15 03:05:54;;;;;;;6.07;3.10;;;;;;;;;;5133326;28;20434;-67
2023/07/15 03:08:21;;;;;;;5.03;4.17;;;;;;;;;;5133638;28;20928;-67
2023/07/15 03:10:49;;;;;;;5.43;3.17;;;;;;;;;;5133810;28;20794;-67
2023/07/15 03:13:16;;;;;;;7.57;5.17;;;;;;;;;;5133751;28;20488;-67
2023/07/15 03:15:44;;;;;;;5.13;3.57;;;;;;;;;;5133297;28;20434;-67
2023/07/15 03:18:11;;;;;;;4.13;2.83;;;;;;;;;;5133719;28;20498;-67
2023/07/15 03:20:39;;;;;;;5.23;3.47;;;;;;;;;;5134036;28;20451;-66
2023/07/15 03:23:08;;;;;;;5.10;3.07;;;;;;;;;;5135860;27;20799;-66
2023/07/15 03:25:35;;;;;;;4.27;3.20;;;;;;;;;;5137407;27;20486;-67
2023/07/15 03:28:02;;;;;;;4.93;3.00;;;;;;;;;;5137345;27;20480;-67
2023/07/15 03:30:29;;;;;;;4.60;3.30;;;;;;;;;;5137666;27;20446;-67
2023/07/15 03:32:58;;;;;;;5.37;3.10;;;;;;;;;;5137677;27;20449;-67
2023/07/15 03:35:25;;;;;;;4.60;3.97;;;;;;;;;;5137199;27;20779;-67
2023/07/15 03:37:52;;;;;;;6.83;4.10;;;;;;;;;;5137566;27;20451;-67
2023/07/15 03:40:21;;;;;;;4.50;3.30;;;;;;;;;;5137125;27;20445;-66
2023/07/15 03:42:48;;;;;;;5.63;3.30;;;;;;;;;;5137268;27;20971;-67
2023/07/15 03:45:15;;;;;;;3.30;3.07;;;;;;;;;;5137683;27;20437;-66
2023/07/15 03:47:43;;;;;;;3.17;2.97;;;;;;;;;;5135422;27;20473;-67
2023/07/15 03:50:10;;;;;;;4.10;3.30;;;;;;;;;;5135158;27;20448;-67
2023/07/15 03:52:37;;;;;;;5.70;3.40;;;;;;;;;;5136240;27;20440;-67
2023/07/15 03:55:05;;;;;;;3.20;3.00;;;;;;;;;;5136555;27;20448;-67
2023/07/15 03:57:34;;;;;;;3.97;3.20;;;;;;;;;;5136216;27;20441;-67
2023/07/15 04:00:03;;;;;;;7.43;3.20;;;;;;;;;;5136104;27;20481;-66
2023/07/15 04:02:30;;;;;;;8.70;3.00;;;;;;;;;;5136462;27;20502;-67
2023/07/15 04:04:57;;;;;;;4.20;2.70;;;;;;;;;;5136097;27;20439;-67
2023/07/15 04:07:25;;;;;;;3.10;2.83;;;;;;;;;;5136165;27;20478;-67
2023/07/15 04:09:52;;;;;;;4.30;3.00;;;;;;;;;;5136044;27;20447;-67
2023/07/15 04:12:19;;;;;;;6.00;3.20;;;;;;;;;;5136203;27;20441;-67
2023/07/15 04:14:47;;;;;;;3.07;2.77;;;;;;;;;;5136180;27;20440;-66
2023/07/15 04:17:15;;;;;;;8.00;3.33;;;;;;;;;;5135888;27;20942;-67
2023/07/15 04:19:43;;;;;;;3.53;3.00;;;;;;;;;;5135988;27;20448;-67
2023/07/15 04:22:10;;;;;;;3.20;2.90;;;;;;;;;;5136385;27;20441;-67
2023/07/15 04:24:38;;;;;;;12.70;3.37;;;;;;;;;;5136084;27;21018;-67
2023/07/15 04:27:05;;;;;;;6.40;3.33;;;;;;;;;;5136156;27;20472;-67
2023/07/15 04:29:32;;;;;;;2.70;2.50;;;;;;;;;;5136175;27;20464;-67
2023/07/15 04:32:01;;;;;;;3.83;3.03;;;;;;;;;;5136255;27;20441;-67
2023/07/15 04:34:28;;;;;;;5.13;2.90;;;;;;;;;;5135430;27;20443;-67
2023/07/15 04:36:55;;;;;;;3.03;2.80;;;;;;;;;;5135892;27;20445;-67
2023/07/15 04:39:23;;;;;;;4.40;3.00;;;;;;;;;;5135808;27;20455;-67
2023/07/15 04:41:50;;;;;;;5.00;3.33;;;;;;;;;;5135686;27;20492;-67
2023/07/15 04:44:17;;;;;;;3.00;2.80;;;;;;;;;;5135983;27;20438;-67
2023/07/15 04:46:44;;;;;;;5.50;3.00;;;;;;;;;;5135960;27;20498;-67
2023/07/15 04:49:13;;;;;;;4.63;3.03;;;;;;;;;;5135458;27;20441;-67
2023/07/15 04:51:40;;;;;;;3.97;2.90;;;;;;;;;;5135580;27;20539;-68
2023/07/15 04:54:07;;;;;;;2.90;2.60;;;;;;;;;;5135314;27;20776;-68
2023/07/15 04:56:35;;;;;;;3.60;3.10;;;;;;;;;;5135658;27;20921;-67
2023/07/15 04:59:02;;;;;;;3.00;2.80;;;;;;;;;;5135000;27;20477;-66
2023/07/15 05:01:29;;;;;;;2.50;2.27;;;;;;;;;;5135381;27;20473;-67
2023/07/15 05:03:57;;;;;;;5.10;2.80;;;;;;;;;;5135282;27;20498;-68
2023/07/15 05:06:25;;;;;;;5.60;2.93;;;;;;;;;;5135713;27;20461;-67
2023/07/15 05:08:53;;;;;;;3.60;3.20;;;;;;;;;;5135650;27;20434;-66
2023/07/15 05:11:20;;;;;;;3.33;2.87;;;;;;;;;;5135429;27;20436;-67
2023/07/15 05:13:47;;;;;;;3.00;2.70;;;;;;;;;;5135612;27;20442;-66
2023/07/15 05:16:15;;;;;;;5.30;3.40;;;;;;;;;;5135350;27;20488;-67
2023/07/15 05:18:42;;;;;;;3.57;2.60;;;;;;;;;;5134864;27;20491;-67
2023/07/15 05:21:09;;;;;;;3.77;2.87;;;;;;;;;;5135113;27;20445;-68
2023/07/15 05:23:38;;;;;;;3.20;3.00;;;;;;;;;;5135054;27;20437;-68
2023/07/15 05:26:05;;;;;;;3.43;3.10;;;;;;;;;;5135320;27;20448;-67
2023/07/15 05:28:32;;;;;;;8.70;3.30;;;;;;;;;;5134999;27;20496;-66
2023/07/15 05:30:59;;;;;;;3.87;2.67;;;;;;;;;;5135300;27;20451;-66
2023/07/15 05:33:27;;;;;;;6.70;3.40;;;;;;;;;;5134889;27;20437;-68
2023/07/15 05:35:54;;;;;;;3.20;2.90;;;;;;;;;;5134916;27;20434;-67
2023/07/15 05:38:22;;;;;;;4.47;3.00;;;;;;;;;;5134374;27;21025;-66
2023/07/15 05:40:51;;;;;;;2.77;2.57;;;;;;;;;;5134874;27;20438;-67
2023/07/15 05:43:19;;;;;;;3.60;2.73;;;;;;;;;;5134664;27;20478;-67
2023/07/15 05:45:46;;;;;;;4.33;2.67;;;;;;;;;;5134547;27;20956;-66
2023/07/15 05:48:13;;;;;;;4.53;3.10;;;;;;;;;;5134122;27;20477;-67
2023/07/15 05:50:41;;;;;;;4.70;2.87;;;;;;;;;;5134709;27;20916;-67
2023/07/15 05:53:08;;;;;;;3.30;2.90;;;;;;;;;;5134570;27;20439;-67
2023/07/15 05:55:35;;;;;;;4.50;2.83;;;;;;;;;;5134352;27;20442;-67
2023/07/15 05:58:09;;;;;;;6.90;2.77;;;;;;;;;;5134308;27;20451;-67
2023/07/15 06:00:36;;;;;;;4.60;3.13;;;;;;;;;;5133996;27;20555;-67
2023/07/15 06:03:04;;;;;;;2.77;2.57;;;;;;;;;;5134528;27;20442;-67
2023/07/15 06:05:31;;;;;;;8.53;3.03;;;;;;;;;;5134423;27;20430;-66
2023/07/15 06:07:58;;;;;;;3.70;2.93;;;;;;;;;;5134313;27;20480;-64
2023/07/15 06:10:25;;;;;;;3.70;2.87;;;;;;;;;;5134615;27;20562;-68
2023/07/15 06:12:52;;;;;;;6.10;3.10;;;;;;;;;;5134313;27;20478;-65
2023/07/15 06:15:21;;;;;;;2.63;2.30;;;;;;;;;;5133899;27;20922;-65
2023/07/15 06:17:48;;;;;;;3.07;2.80;;;;;;;;;;5133813;27;20451;-65
2023/07/15 06:20:18;;;;;;;4.00;3.03;;;;;;;;;;5133590;27;20452;-65
2023/07/15 06:22:45;;;;;;;4.90;2.93;;;;;;;;;;5134371;27;20436;-65
2023/07/15 06:25:13;;;;;;;5.60;3.10;;;;;;;;;;5134245;27;20440;-68
2023/07/15 06:27:41;;;;;;;3.40;3.10;;;;;;;;;;5133769;27;20480;-65
2023/07/15 06:30:09;;;;;;;3.00;2.67;;;;;;;;;;5133818;28;20452;-65
2023/07/15 06:32:37;;;;;;;4.00;2.93;;;;;;;;;;5134084;28;20436;-65
2023/07/15 06:35:05;;;;;;;5.63;3.10;;;;;;;;;;5133787;28;20455;-66
2023/07/15 06:37:32;;;;;;;3.50;3.20;;;;;;;;;;5134160;28;20436;-66
2023/07/15 06:39:59;;;;;;;5.00;3.10;;;;;;;;;;5133947;28;20436;-66
2023/07/15 06:42:26;;;;;;;3.17;2.87;;;;;;;;;;5133280;28;20450;-66
2023/07/15 06:44:53;;;;;;;5.13;3.00;;;;;;;;;;5133359;28;20449;-65
2023/07/15 06:47:20;;;;;;;4.00;3.60;;;;;;;;;;5133785;28;20483;-65
2023/07/15 06:49:49;;;;;;;4.40;3.50;;;;;;;;;;5133622;28;20460;-65
2023/07/15 06:52:16;;;;;;;4.03;2.90;;;;;;;;;;5133986;28;20444;-66
2023/07/15 06:54:43;;;;;;;3.10;2.80;;;;;;;;;;5133968;28;20467;-65
2023/07/15 06:57:10;;;;;;;3.10;2.77;;;;;;;;;;5134459;27;20437;-66
2023/07/15 06:59:38;;;;;;;4.97;2.67;;;;;;;;;;5137765;27;20473;-65
2023/07/15 07:02:05;;;;;;;4.50;3.10;;;;;;;;;;5137632;27;20790;-66
2023/07/15 07:04:32;;;;;;;5.23;2.77;;;;;;;;;;5137465;27;20444;-66
2023/07/15 07:07:00;;;;;;;6.03;2.70;;;;;;;;;;5137617;27;20437;-66
2023/07/15 07:09:28;;;;;;;5.30;2.63;;;;;;;;;;5137253;27;20447;-66
2023/07/15 07:11:55;;;;;;;2.63;2.43;;;;;;;;;;5137410;27;20441;-67
2023/07/15 07:14:22;;;;;;;3.67;2.80;;;;;;;;;;5137503;27;20444;-66
2023/07/15 07:16:49;;;;;;;4.33;2.60;;;;;;;;;;5137768;27;20462;-66
2023/07/15 07:19:16;;;;;;;3.10;2.90;;;;;;;;;;5137677;27;20790;-66
2023/07/15 07:21:44;;;;;;;3.40;2.60;;;;;;;;;;5137604;27;20440;-66
2023/07/15 07:24:12;;;;;;;4.00;3.47;;;;;;;;;;5137169;27;20438;-66
2023/07/15 07:26:39;;;;;;;3.23;2.50;;;;;;;;;;5137718;27;20468;-66
2023/07/15 07:29:06;;;;;;;4.43;2.80;;;;;;;;;;5137437;27;20488;-66
2023/07/15 07:31:34;;;;;;;2.83;2.33;;;;;;;;;;5137624;27;20449;-66
2023/07/15 07:34:01;;;;;;;5.90;2.30;;;;;;;;;;5136589;27;20447;-66
2023/07/15 07:36:28;;;;;;;2.90;2.70;;;;;;;;;;5137949;27;20439;-65
2023/07/15 07:38:56;;;;;;;4.23;2.80;;;;;;;;;;5137360;27;20444;-66
2023/07/15 07:41:24;;;;;;;2.60;2.40;;;;;;;;;;5137430;27;20449;-66
2023/07/15 07:43:51;;;;;;;3.93;2.60;;;;;;;;;;5137642;27;20462;-65
2023/07/15 07:46:18;;;;;;;4.27;2.70;;;;;;;;;;5137287;27;20451;-67
2023/07/15 07:48:46;;;;;;;3.13;2.70;;;;;;;;;;5137152;27;20471;-67
2023/07/15 07:51:13;;;;;;;3.70;2.53;;;;;;;;;;5136842;27;20533;-66
2023/07/15 07:53:40;;;;;;;6.00;2.60;;;;;;;;;;5136935;27;20956;-66
2023/07/15 07:56:11;;;;;;;3.23;2.70;;;;;;;;;;5137081;27;20439;-66
2023/07/15 07:58:39;;;;;;;2.47;2.27;;;;;;;;;;5136652;27;20454;-66
2023/07/15 08:01:06;;;;;;;3.70;2.90;;;;;;;;;;5137412;27;20712;-66
2023/07/15 08:03:33;;;;;;;2.77;2.57;;;;;;;;;;5137264;27;20782;-66
2023/07/15 08:06:01;;;;;;;2.20;2.10;;;;;;;;;;5136784;27;20449;-65
2023/07/15 08:08:28;;;;;;;3.80;3.50;;;;;;;;;;5135859;27;20560;-65
2023/07/15 08:10:55;;;;;;;3.97;2.50;;;;;;;;;;5136187;27;20421;-65
2023/07/15 08:13:23;;;;;;;7.60;2.93;;;;;;;;;;5136755;27;20440;-65
2023/07/15 08:15:51;;;;;;;7.90;2.50;;;;;;;;;;5135460;27;20443;-66
2023/07/15 08:18:18;;;;;;;3.03;2.10;;;;;;;;;;5136050;27;20426;-66
2023/07/15 08:20:46;;;;;;;3.43;2.30;;;;;;;;;;5136262;27;20458;-65
2023/07/15 08:23:13;;;;;;;5.17;2.43;;;;;;;;;;5136721;27;20429;-66
2023/07/15 08:25:40;;;;;;;2.57;2.10;;;;;;;;;;5135857;27;20441;-65
2023/07/15 08:28:07;;;;;;;4.27;2.67;;;;;;;;;;5136135;27;20468;-66
2023/07/15 08:30:36;;;;;;;4.17;2.67;;;;;;;;;;5136250;27;20443;-66
2023/07/15 08:33:05;;;;;;;2.83;2.50;;;;;;;;;;5136017;27;20445;-65
2023/07/15 08:35:32;;;;;;;3.10;2.60;;;;;;;;;;5136141;27;20490;-66
2023/07/15 08:37:59;;;;;;;4.47;2.30;;;;;;;;;;5135693;27;20497;-66
2023/07/15 08:40:27;;;;;;;5.90;2.60;;;;;;;;;;5135776;27;20440;-65
2023/07/15 08:42:54;;;;;;;4.37;3.03;;;;;;;;;;5136413;27;20769;-65
2023/07/15 08:45:24;;;;;;;4.80;2.60;;;;;;;;;;5135685;27;20448;-64
2023/07/15 08:47:51;;;;;;;5.97;2.63;;;;;;;;;;5135788;27;20816;-65
2023/07/15 08:50:19;;;;;;;2.90;2.60;;;;;;;;;;5135769;27;20416;-64
2023/07/15 08:52:47;;;;;;;3.23;2.40;;;;;;;;;;5136067;27;20436;-65
2023/07/15 08:55:14;;;;;;;2.57;2.30;;;;;;;;;;5135391;27;20419;-65
2023/07/15 08:57:42;;;;;;;5.93;2.33;;;;;;;;;;5135659;27;20442;-65
2023/07/15 09:00:10;;;;;;;3.83;2.53;;;;;;;;;;5134258;27;20465;-66
2023/07/15 09:02:38;;;;;;;2.43;2.20;;;;;;;;;;5135505;27;20409;-65
2023/07/15 09:05:07;;;;;;;2.90;2.70;;;;;;;;;;5135679;27;20524;-66
2023/07/15 09:07:44;;;;;;;4.50;2.53;;;;;;;;;;5135178;27;20441;-66
2023/07/15 09:10:13;;;;;;;2.53;2.20;;;;;;;;;;5135480;27;20432;-66
2023/07/15 09:12:44;;;;;;;2.90;2.70;;;;;;;;;;5135799;27;20491;-66
2023/07/15 09:15:13;;;;;;;2.90;2.07;;;;;;;;;;5135755;27;20417;-65
2023/07/15 09:17:40;;;;;;;3.43;2.53;;;;;;;;;;5134869;27;20904;-65
2023/07/15 09:20:14;;;;;;;3.30;2.10;;;;;;;;;;5134256;27;20939;-65
2023/07/15 09:22:43;;;;;;;3.40;2.70;;;;;;;;;;5135201;27;20436;-65
2023/07/15 09:25:11;;;;;;;4.60;2.40;;;;;;;;;;5135625;27;20442;-66
2023/07/15 09:27:42;;;;;;;2.83;2.53;;;;;;;;;;5134720;27;20418;-66
2023/07/15 09:30:10;;;;;;;3.87;2.50;;;;;;;;;;5135165;27;20759;-66
2023/07/15 09:32:37;;;;;;;3.73;2.90;;;;;;;;;;5135117;27;20449;-65
2023/07/15 09:35:05;;;;;;;5.03;2.73;;;;;;;;;;5135003;27;20411;-67
2023/07/15 09:37:32;;;;;;;4.47;3.37;;;;;;;;;;5134643;27;20840;-66
2023/07/15 09:40:02;;;;;;;2.30;2.10;;;;;;;;;;5134342;27;20424;-67
2023/07/15 09:42:29;;;;;;;3.70;2.60;;;;;;;;;;5134409;27;20415;-66
2023/07/15 09:44:57;;;;;;;4.10;3.13;;;;;;;;;;5134295;27;20503;-66
2023/07/15 09:47:27;;;;;;;3.10;2.70;;;;;;;;;;5134640;27;20503;-66
2023/07/15 09:49:55;;;;;;;6.33;3.00;;;;;;;;;;5134632;27;20464;-66
2023/07/15 09:52:22;;;;;;;3.17;2.60;;;;;;;;;;5134307;27;20453;-66
2023/07/15 09:54:49;;;;;;;6.23;2.47;;;;;;;;;;5134858;27;20442;-66
2023/07/15 09:57:20;;;;;;;3.67;2.40;;;;;;;;;;5134412;27;20420;-67
2023/07/15 09:59:49;;;;;;;3.90;2.70;;;;;;;;;;5134427;27;20818;-66
2023/07/15 10:02:19;;;;;;;4.83;2.27;;;;;;;;;;5134234;27;20447;-66
2023/07/15 10:04:46;;;;;;;2.50;2.30;;;;;;;;;;5134914;27;20433;-65
2023/07/15 10:07:14;;;;;;;11.43;2.70;;;;;;;;;;5134413;27;20441;-66
2023/07/15 10:09:41;;;;;;;10.83;2.90;;;;;;;;;;5134055;27;20961;-66
2023/07/15 10:12:09;;;;;;;4.90;2.87;;;;;;;;;;5134220;27;20468;-66
2023/07/15 10:14:38;;;;;;;3.30;2.70;;;;;;;;;;5134421;27;20420;-66
2023/07/15 10:17:09;;;;;;;6.67;2.87;;;;;;;;;;5133949;27;20440;-66
2023/07/15 10:19:40;;;;;;;4.30;2.93;;;;;;;;;;5134290;27;20523;-66
2023/07/15 10:22:08;;;;;;;2.47;2.27;;;;;;;;;;5133161;27;20497;-66
2023/07/15 10:24:35;;;;;;;4.70;2.57;;;;;;;;;;5133687;27;20445;-66
2023/07/15 10:27:03;;;;;;;2.53;2.33;;;;;;;;;;5133938;27;20775;-66
2023/07/15 10:29:31;;;;;;;3.70;3.13;;;;;;;;;;5133670;27;20570;-66
2023/07/15 10:32:12;;;;;;;4.20;2.63;;;;;;;;;;5133255;27;20443;-66
2023/07/15 10:34:41;;;;;;;3.00;2.67;;;;;;;;;;5134133;28;20435;-65
2023/07/15 10:37:10;;;;;;;4.83;2.70;;;;;;;;;;5133531;28;20894;-66
2023/07/15 10:39:38;;;;;;;6.30;3.60;;;;;;;;;;5134186;28;20446;-66
2023/07/15 10:42:09;;;;;;;6.87;3.40;;;;;;;;;;5133560;28;20452;-66
2023/07/15 10:44:40;;;;;;;3.23;2.93;;;;;;;;;;5133995;28;20448;-65
2023/07/15 10:47:08;;;;;;;5.80;3.30;;;;;;;;;;5133478;28;20460;-66
2023/07/15 10:49:37;;;;;;;3.00;2.70;;;;;;;;;;5133758;28;20480;-65
2023/07/15 10:52:05;;;;;;;4.57;3.53;;;;;;;;;;5133227;28;20956;-66
2023/07/15 10:54:33;;;;;;;3.33;3.07;;;;;;;;;;5133495;28;20516;-66
2023/07/15 10:57:07;;;;;;;3.67;3.23;;;;;;;;;;5133215;28;21003;-66
2023/07/15 10:59:35;;;;;;;4.10;3.57;;;;;;;;;;5134044;28;20498;-65
2023/07/15 11:02:02;;;;;;;3.90;3.03;;;;;;;;;;5133492;28;20957;-66
2023/07/15 11:04:30;;;;;;;4.00;3.53;;;;;;;;;;5133915;28;20444;-66
2023/07/15 11:07:01;;;;;;;3.97;3.63;;;;;;;;;;5133326;28;20446;-66
2023/07/15 11:09:28;;;;;;;4.17;3.47;;;;;;;;;;5133908;28;20469;-66
2023/07/15 11:11:55;;;;;;;5.83;3.47;;;;;;;;;;5133505;28;20446;-66
2023/07/15 11:14:24;;;;;;;4.77;3.53;;;;;;;;;;5134730;28;20438;-66
2023/07/15 11:16:51;;;;;;;4.50;3.57;;;;;;;;;;5133779;28;20443;-66
2023/07/15 11:19:18;;;;;;;4.50;3.67;;;;;;;;;;5133880;28;20455;-66
2023/07/15 11:21:46;;;;;;;5.90;3.93;;;;;;;;;;5133625;28;20440;-66
2023/07/15 11:24:15;;;;;;;3.60;3.30;;;;;;;;;;5133513;28;20512;-66
2023/07/15 11:26:42;;;;;;;4.47;4.07;;;;;;;;;;5133312;28;20928;-66
2023/07/15 11:29:20;;;;;;;3.97;3.57;;;;;;;;;;5133813;28;20473;-66
2023/07/15 11:31:47;;;;;;;4.57;4.07;;;;;;;;;;5134041;28;20508;-66
2023/07/15 11:34:16;;;;;;;3.73;3.17;;;;;;;;;;5133657;28;20441;-66
2023/07/15 11:36:43;;;;;;;4.10;3.70;;;;;;;;;;5133762;28;20830;-66
2023/07/15 11:39:11;;;;;;;5.70;4.23;;;;;;;;;;5134138;28;20444;-66
2023/07/15 11:41:40;;;;;;;3.43;3.23;;;;;;;;;;5133436;28;20444;-66
2023/07/15 11:44:08;;;;;;;5.40;3.20;;;;;;;;;;5135504;27;20854;-66
2023/07/15 11:46:36;;;;;;;4.50;3.43;;;;;;;;;;5137308;27;20434;-65
2023/07/15 11:49:03;;;;;;;4.33;3.67;;;;;;;;;;5137179;27;20469;-66
2023/07/15 11:51:32;;;;;;;3.33;3.13;;;;;;;;;;5136807;27;20948;-65
2023/07/15 11:54:00;;;;;;;3.50;3.20;;;;;;;;;;5137008;27;20452;-65
2023/07/15 11:56:33;;;;;;;4.40;3.37;;;;;;;;;;5137280;27;20441;-66
2023/07/15 11:59:02;;;;;;;3.33;3.03;;;;;;;;;;5136905;27;20566;-66
2023/07/15 12:01:30;;;;;;;12.90;4.00;;;;;;;;;;5136814;27;20469;-65
2023/07/15 12:03:57;;;;;;;3.57;3.37;;;;;;;;;;5136550;27;20885;-65
2023/07/15 12:06:25;;;;;;;3.23;2.93;;;;;;;;;;5136929;27;20773;-65
2023/07/15 12:09:02;;;;;;;5.23;3.50;;;;;;;;;;5134999;27;20446;-66
2023/07/15 12:11:29;;;;;;;3.40;3.10;;;;;;;;;;5136284;27;20443;-65
2023/07/15 12:13:56;;;;;;;3.10;2.90;;;;;;;;;;5136313;27;20411;-65
2023/07/15 12:16:25;;;;;;;5.07;3.27;;;;;;;;;;5136238;27;20445;-66
2023/07/15 12:18:53;;;;;;;3.50;2.83;;;;;;;;;;5136202;27;20434;-66
2023/07/15 12:21:20;;;;;;;2.90;2.70;;;;;;;;;;5136123;27;20932;-66
2023/07/15 12:23:50;;;;;;;3.50;2.83;;;;;;;;;;5136649;27;20416;-66
2023/07/15 12:26:17;;;;;;;3.00;2.73;;;;;;;;;;5136388;27;20904;-65
2023/07/15 12:28:44;;;;;;;3.90;2.90;;;;;;;;;;5135323;27;20448;-65
2023/07/15 12:31:11;;;;;;;4.00;2.50;;;;;;;;;;5136098;27;20445;-67
2023/07/15 12:33:40;;;;;;;2.60;2.40;;;;;;;;;;5135732;27;20522;-65
2023/07/15 12:36:08;;;;;;;3.10;2.43;;;;;;;;;;5136430;27;20524;-65
2023/07/15 12:38:35;;;;;;;2.67;2.47;;;;;;;;;;5136004;27;20444;-65
2023/07/15 12:41:03;;;;;;;3.30;2.50;;;;;;;;;;5135922;27;20446;-66
2023/07/15 12:43:30;;;;;;;2.77;2.57;;;;;;;;;;5135614;27;20998;-66
2023/07/15 12:45:58;;;;;;;4.70;3.80;;;;;;;;;;5135772;27;20933;-65
2023/07/15 12:48:25;;;;;;;3.17;2.90;;;;;;;;;;5135245;27;20961;-66
2023/07/15 12:50:54;;;;;;;3.37;2.57;;;;;;;;;;5135896;27;20507;-65
2023/07/15 12:53:21;;;;;;;2.90;2.70;;;;;;;;;;5135360;27;20975;-65
2023/07/15 12:55:48;;;;;;;3.17;2.77;;;;;;;;;;5135028;27;20432;-65
2023/07/15 12:58:16;;;;;;;3.30;2.43;;;;;;;;;;5135905;27;20427;-65
2023/07/15 13:00:43;;;;;;;2.77;2.57;;;;;;;;;;5135323;27;20476;-65
2023/07/15 13:03:10;;;;;;;4.33;2.20;;;;;;;;;;5135240;27;20438;-65
2023/07/15 13:05:38;;;;;;;3.00;2.53;;;;;;;;;;5135703;27;20413;-66
2023/07/15 13:08:07;;;;;;;3.97;2.60;;;;;;;;;;5135071;27;21081;-66
2023/07/15 13:10:35;;;;;;;2.60;2.40;;;;;;;;;;5135730;27;20909;-66
2023/07/15 13:13:02;;;;;;;4.47;3.00;;;;;;;;;;5135375;27;20416;-66
2023/07/15 13:15:29;;;;;;;3.20;2.70;;;;;;;;;;5135420;27;20410;-66
2023/07/15 13:17:56;;;;;;;3.40;2.70;;;;;;;;;;5135731;27;20439;-66
2023/07/15 13:20:24;;;;;;;3.40;2.70;;;;;;;;;;5135170;27;20449;-66
2023/07/15 13:22:51;;;;;;;3.50;3.20;;;;;;;;;;5135276;27;20502;-66
2023/07/15 13:25:20;;;;;;;5.40;2.80;;;;;;;;;;5135120;27;20452;-66
2023/07/15 13:27:47;;;;;;;3.10;2.80;;;;;;;;;;5134617;27;20525;-67
2023/07/15 13:30:14;;;;;;;2.50;2.30;;;;;;;;;;5135046;27;20473;-66
2023/07/15 13:32:41;;;;;;;3.03;2.43;;;;;;;;;;5134479;27;20926;-66
2023/07/15 13:35:09;;;;;;;3.30;2.77;;;;;;;;;;5134729;27;20779;-66
2023/07/15 13:37:36;;;;;;;3.00;2.80;;;;;;;;;;5134699;27;20416;-66
2023/07/15 13:40:05;;;;;;;3.20;3.00;;;;;;;;;;5134771;27;20448;-66
2023/07/15 13:42:34;;;;;;;3.10;2.70;;;;;;;;;;5134489;27;20426;-66
2023/07/15 13:45:01;;;;;;;3.23;2.97;;;;;;;;;;5134727;27;20415;-66
2023/07/15 13:47:28;;;;;;;2.80;2.60;;;;;;;;;;5134309;27;20503;-67
2023/07/15 13:49:55;;;;;;;2.80;2.60;;;;;;;;;;5134278;27;20978;-66
2023/07/15 13:52:24;;;;;;;3.20;2.90;;;;;;;;;;5134864;27;20464;-66
2023/07/15 13:54:51;;;;;;;3.00;2.80;;;;;;;;;;5134044;27;20423;-66
2023/07/15 13:57:18;;;;;;;2.97;2.77;;;;;;;;;;5134068;27;20423;-66
2023/07/15 13:59:47;;;;;;;7.03;6.43;;;;;;;;;;5133845;27;20468;-66
2023/07/15 14:02:15;;;;;;;5.50;5.00;;;;;;;;;;5135068;27;20450;-66
2023/07/15 14:04:42;;;;;;;6.07;3.87;;;;;;;;;;5134719;27;20424;-66
2023/07/15 14:07:09;;;;;;;3.80;2.70;;;;;;;;;;5133163;27;20444;-66
2023/07/15 14:09:36;;;;;;;3.10;2.80;;;;;;;;;;5134079;27;20412;-65
2023/07/15 14:12:04;;;;;;;5.40;3.13;;;;;;;;;;5134345;27;20456;-65
2023/07/15 14:14:31;;;;;;;2.70;2.50;;;;;;;;;;5133785;27;20470;-65
2023/07/15 14:17:00;;;;;;;2.87;2.67;;;;;;;;;;5134299;27;20503;-65
2023/07/15 14:19:27;;;;;;;3.13;2.93;;;;;;;;;;5134088;27;20477;-65
2023/07/15 14:21:54;;;;;;;3.27;2.97;;;;;;;;;;5134401;27;20440;-66
2023/07/15 14:24:21;;;;;;;4.07;3.07;;;;;;;;;;5134230;27;20448;-66
2023/07/15 14:26:48;;;;;;;3.03;2.83;;;;;;;;;;5134268;27;20422;-66
2023/07/15 14:29:15;;;;;;;3.43;3.20;;;;;;;;;;5133380;27;20449;-66
2023/07/15 14:31:43;;;;;;;3.77;3.27;;;;;;;;;;5134077;27;20465;-66
2023/07/15 14:34:11;;;;;;;3.47;3.17;;;;;;;;;;5134019;28;20449;-66
2023/07/15 14:36:38;;;;;;;4.00;2.80;;;;;;;;;;5134149;28;20736;-66
2023/07/15 14:39:05;;;;;;;3.83;3.03;;;;;;;;;;5133536;28;20428;-66
2023/07/15 14:41:33;;;;;;;3.40;3.20;;;;;;;;;;5134035;28;20533;-66
2023/07/15 14:44:00;;;;;;;3.50;3.20;;;;;;;;;;5133832;28;20474;-66
2023/07/15 14:46:27;;;;;;;3.13;2.93;;;;;;;;;;5133981;28;20426;-66